createdAt,value
2017-05-21T00:00:31.565Z,18.00
2017-05-21T00:01:32.294Z,17.00
2017-05-21T00:02:33.023Z,16.00
2017-05-21T00:03:33.751Z,15.00
2017-05-21T00:04:34.478Z,21.00
2017-05-21T00:05:35.457Z,18.00
2017-05-21T00:06:36.183Z,14.00
2017-05-21T00:07:36.911Z,14.00
2017-05-21T00:08:37.638Z,12.00
2017-05-21T00:09:38.365Z,13.00
2017-05-21T00:10:39.343Z,16.00
2017-05-21T00:11:40.069Z,12.00
2017-05-21T00:12:40.798Z,13.00
2017-05-21T00:13:41.526Z,15.00
2017-05-21T00:14:42.251Z,14.00
2017-05-21T00:15:43.226Z,26.00
2017-05-21T00:16:43.953Z,16.00
2017-05-21T00:17:44.681Z,13.00
2017-05-21T00:18:45.409Z,15.00
2017-05-21T00:19:46.132Z,18.00
2017-05-21T00:20:47.111Z,12.00
2017-05-21T00:21:47.839Z,15.00
2017-05-21T00:22:48.565Z,16.00
2017-05-21T00:23:49.293Z,12.00
2017-05-21T00:24:50.019Z,16.00
2017-05-21T00:25:50.995Z,18.00
2017-05-21T00:26:51.721Z,12.00
2017-05-21T00:27:52.450Z,12.00
2017-05-21T00:28:53.203Z,13.00
2017-05-21T00:29:53.930Z,19.00
2017-05-21T00:30:54.908Z,15.00
2017-05-21T00:31:55.636Z,18.00
2017-05-21T00:32:56.363Z,13.00
2017-05-21T00:33:57.094Z,12.00
2017-05-21T00:34:57.819Z,14.00
2017-05-21T00:35:58.799Z,25.00
2017-05-21T00:36:59.526Z,12.00
2017-05-21T00:38:00.247Z,20.00
2017-05-21T00:39:00.979Z,12.00
2017-05-21T00:40:01.726Z,14.00
2017-05-21T00:41:02.705Z,17.00
2017-05-21T00:42:03.434Z,23.00
2017-05-21T00:43:04.162Z,19.00
2017-05-21T00:44:04.891Z,16.00
2017-05-21T00:45:05.645Z,10.00
2017-05-21T00:46:06.620Z,13.00
2017-05-21T00:47:07.347Z,17.00
2017-05-21T00:48:08.075Z,18.00
2017-05-21T00:49:08.801Z,17.00
2017-05-21T00:50:09.529Z,21.00
2017-05-21T00:51:10.536Z,16.00
2017-05-21T00:52:11.287Z,19.00
2017-05-21T00:53:12.013Z,12.00
2017-05-21T00:54:12.743Z,12.00
2017-05-21T00:55:13.469Z,17.00
2017-05-21T00:56:14.445Z,15.00
2017-05-21T00:57:15.199Z,20.00
2017-05-21T00:58:15.926Z,17.00
2017-05-21T00:59:16.655Z,14.00
2017-05-21T01:00:17.382Z,15.00
2017-05-21T01:01:18.356Z,18.00
2017-05-21T01:02:19.086Z,14.00
2017-05-21T01:03:19.841Z,23.00
2017-05-21T01:04:20.569Z,16.00
2017-05-21T01:05:21.295Z,19.00
2017-05-21T01:06:22.273Z,15.00
2017-05-21T01:07:23.002Z,23.00
2017-05-21T01:08:23.729Z,18.00
2017-05-21T01:09:24.458Z,25.00
2017-05-21T01:10:25.185Z,20.00
2017-05-21T01:11:26.161Z,19.00
2017-05-21T01:12:26.890Z,19.00
2017-05-21T01:13:27.615Z,16.00
2017-05-21T01:14:28.343Z,20.00
2017-05-21T01:15:29.072Z,12.00
2017-05-21T01:16:30.048Z,16.00
2017-05-21T01:17:30.774Z,19.00
2017-05-21T01:18:31.529Z,18.00
2017-05-21T01:19:32.256Z,15.00
2017-05-21T01:20:33.006Z,23.00
2017-05-21T01:21:33.984Z,22.00
2017-05-21T01:22:34.711Z,15.00
2017-05-21T01:23:35.436Z,19.00
2017-05-21T01:24:36.165Z,20.00
2017-05-21T01:25:36.892Z,21.00
2017-05-21T01:26:37.870Z,17.00
2017-05-21T01:27:38.598Z,23.00
2017-05-21T01:28:39.323Z,18.00
2017-05-21T01:29:40.051Z,17.00
2017-05-21T01:30:40.780Z,18.00
2017-05-21T01:31:41.784Z,17.00
2017-05-21T01:32:42.511Z,20.00
2017-05-21T01:33:43.238Z,24.00
2017-05-21T01:34:43.965Z,22.00
2017-05-21T01:35:44.691Z,20.00
2017-05-21T01:36:45.670Z,19.00
2017-05-21T01:37:46.394Z,19.00
2017-05-21T01:38:47.121Z,34.00
2017-05-21T01:39:47.877Z,19.00
2017-05-21T01:40:48.631Z,19.00
2017-05-21T01:41:49.608Z,19.00
2017-05-21T01:42:50.331Z,22.00
2017-05-21T01:43:51.059Z,26.00
2017-05-21T01:44:51.786Z,18.00
2017-05-21T01:45:52.513Z,20.00
2017-05-21T01:46:53.494Z,22.00
2017-05-21T01:47:54.218Z,20.00
2017-05-21T01:48:54.945Z,21.00
2017-05-21T01:49:55.669Z,18.00
2017-05-21T01:50:56.396Z,17.00
2017-05-21T01:51:57.375Z,26.00
2017-05-21T01:52:58.101Z,15.00
2017-05-21T01:53:58.829Z,17.00
2017-05-21T01:54:59.554Z,17.00
2017-05-21T01:56:00.279Z,18.00
2017-05-21T01:57:01.255Z,23.00
2017-05-21T01:58:01.983Z,18.00
2017-05-21T01:59:02.711Z,23.00
2017-05-21T02:00:03.440Z,20.00
2017-05-21T02:01:04.165Z,26.00
2017-05-21T02:02:05.142Z,28.00
2017-05-21T02:03:06.131Z,16.00
2017-05-21T02:04:06.856Z,17.00
2017-05-21T02:05:07.581Z,21.00
2017-05-21T02:06:08.310Z,17.00
2017-05-21T02:07:09.286Z,18.00
2017-05-21T02:08:10.013Z,17.00
2017-05-21T02:09:10.740Z,19.00
2017-05-21T02:10:11.465Z,18.00
2017-05-21T02:11:12.194Z,16.00
2017-05-21T02:12:13.196Z,28.00
2017-05-21T02:13:13.925Z,25.00
2017-05-21T02:14:14.648Z,22.00
2017-05-21T02:15:15.372Z,15.00
2017-05-21T02:16:16.098Z,21.00
2017-05-21T02:17:17.101Z,20.00
2017-05-21T02:18:17.829Z,17.00
2017-05-21T02:19:18.554Z,23.00
2017-05-21T02:20:19.280Z,19.00
2017-05-21T02:21:20.007Z,16.00
2017-05-21T02:22:20.986Z,19.00
2017-05-21T02:23:21.712Z,21.00
2017-05-21T02:24:22.437Z,15.00
2017-05-21T02:25:23.164Z,18.00
2017-05-21T02:26:23.916Z,14.00
2017-05-21T02:27:24.891Z,13.00
2017-05-21T02:28:25.619Z,14.00
2017-05-21T02:29:26.347Z,19.00
2017-05-21T02:30:27.074Z,18.00
2017-05-21T02:31:27.826Z,26.00
2017-05-21T02:32:28.805Z,16.00
2017-05-21T02:33:29.562Z,32.00
2017-05-21T02:34:30.317Z,20.00
2017-05-21T02:35:31.043Z,19.00
2017-05-21T02:36:31.771Z,17.00
2017-05-21T02:37:32.751Z,15.00
2017-05-21T02:38:33.476Z,16.00
2017-05-21T02:39:34.205Z,19.00
2017-05-21T02:40:34.930Z,19.00
2017-05-21T02:41:35.656Z,16.00
2017-05-21T02:42:36.633Z,17.00
2017-05-21T02:43:37.362Z,21.00
2017-05-21T02:44:38.085Z,18.00
2017-05-21T02:45:38.814Z,22.00
2017-05-21T02:46:39.539Z,22.00
2017-05-21T02:47:40.517Z,12.00
2017-05-21T02:48:41.273Z,24.00
2017-05-21T02:49:41.997Z,29.00
2017-05-21T02:50:42.724Z,21.00
2017-05-21T02:51:43.476Z,20.00
2017-05-21T02:52:44.456Z,27.00
2017-05-21T02:53:45.182Z,19.00
2017-05-21T02:54:45.911Z,32.00
2017-05-21T02:55:46.636Z,27.00
2017-05-21T02:56:47.363Z,25.00
2017-05-21T02:57:48.342Z,32.00
2017-05-21T02:58:49.066Z,21.00
2017-05-21T02:59:49.792Z,17.00
2017-05-21T03:00:50.517Z,22.00
2017-05-21T03:01:51.243Z,24.00
2017-05-21T03:02:52.222Z,29.00
2017-05-21T03:03:52.944Z,28.00
2017-05-21T03:04:53.672Z,23.00
2017-05-21T03:05:54.399Z,27.00
2017-05-21T03:06:55.126Z,21.00
2017-05-21T03:07:56.109Z,24.00
2017-05-21T03:08:56.829Z,38.00
2017-05-21T03:09:57.555Z,18.00
2017-05-21T03:10:58.276Z,26.00
2017-05-21T03:11:59.000Z,25.00
2017-05-21T03:12:59.979Z,22.00
2017-05-21T03:14:00.707Z,27.00
2017-05-21T03:15:01.434Z,18.00
2017-05-21T03:16:02.156Z,22.00
2017-05-21T03:17:02.884Z,26.00
2017-05-21T03:18:03.860Z,20.00
2017-05-21T03:19:04.587Z,38.00
2017-05-21T03:20:05.316Z,23.00
2017-05-21T03:21:06.040Z,24.00
2017-05-21T03:22:06.761Z,21.00
2017-05-21T03:23:07.740Z,34.00
2017-05-21T03:24:08.467Z,23.00
2017-05-21T03:25:09.193Z,25.00
2017-05-21T03:26:09.921Z,36.00
2017-05-21T03:27:10.652Z,39.00
2017-05-21T03:28:11.627Z,22.00
2017-05-21T03:29:12.357Z,36.00
2017-05-21T03:30:13.083Z,26.00
2017-05-21T03:31:13.813Z,19.00
2017-05-21T03:32:14.540Z,25.00
2017-05-21T03:33:15.521Z,29.00
2017-05-21T03:34:16.246Z,23.00
2017-05-21T03:35:16.969Z,26.00
2017-05-21T03:36:17.700Z,23.00
2017-05-21T03:37:18.457Z,24.00
2017-05-21T03:38:19.436Z,31.00
2017-05-21T03:39:20.163Z,23.00
2017-05-21T03:40:20.894Z,34.00
2017-05-21T03:41:21.623Z,25.00
2017-05-21T03:42:22.353Z,30.00
2017-05-21T03:43:23.329Z,44.00
2017-05-21T03:44:24.059Z,25.00
2017-05-21T03:45:24.787Z,37.00
2017-05-21T03:46:25.517Z,29.00
2017-05-21T03:47:26.246Z,32.00
2017-05-21T03:48:27.228Z,29.00
2017-05-21T03:49:27.949Z,31.00
2017-05-21T03:50:28.677Z,25.00
2017-05-21T03:51:29.405Z,33.00
2017-05-21T03:52:30.135Z,25.00
2017-05-21T03:53:31.117Z,41.00
2017-05-21T03:54:31.846Z,29.00
2017-05-21T03:55:32.576Z,26.00
2017-05-21T03:56:33.304Z,28.00
2017-05-21T03:57:34.032Z,31.00
2017-05-21T03:58:35.011Z,25.00
2017-05-21T03:59:35.741Z,33.00
2017-05-21T04:00:36.470Z,35.00
2017-05-21T04:01:37.199Z,26.00
2017-05-21T04:02:37.925Z,30.00
2017-05-21T04:03:38.906Z,29.00
2017-05-21T04:04:39.635Z,36.00
2017-05-21T04:05:40.368Z,25.00
2017-05-21T04:06:41.097Z,27.00
2017-05-21T04:07:41.825Z,36.00
2017-05-21T04:08:42.805Z,28.00
2017-05-21T04:09:43.536Z,30.00
2017-05-21T04:10:44.267Z,33.00
2017-05-21T04:11:44.996Z,28.00
2017-05-21T04:12:45.729Z,22.00
2017-05-21T04:13:46.708Z,25.00
2017-05-21T04:14:47.464Z,23.00
2017-05-21T04:15:48.197Z,22.00
2017-05-21T04:16:48.958Z,24.00
2017-05-21T04:17:49.688Z,22.00
2017-05-21T04:18:50.669Z,20.00
2017-05-21T04:19:51.393Z,30.00
2017-05-21T04:20:52.123Z,21.00
2017-05-21T04:21:52.856Z,25.00
2017-05-21T04:22:53.587Z,29.00
2017-05-21T04:23:54.571Z,23.00
2017-05-21T04:24:55.302Z,22.00
2017-05-21T04:25:56.032Z,33.00
2017-05-21T04:26:56.762Z,23.00
2017-05-21T04:27:57.493Z,20.00
2017-05-21T04:28:58.473Z,22.00
2017-05-21T04:29:59.209Z,27.00
2017-05-21T04:30:59.935Z,26.00
2017-05-21T04:32:00.665Z,24.00
2017-05-21T04:33:01.396Z,39.00
2017-05-21T04:34:02.379Z,20.00
2017-05-21T04:35:03.137Z,21.00
2017-05-21T04:36:03.868Z,15.00
2017-05-21T04:37:04.628Z,22.00
2017-05-21T04:38:05.359Z,28.00
2017-05-21T04:39:06.340Z,26.00
2017-05-21T04:40:07.073Z,21.00
2017-05-21T04:41:07.804Z,23.00
2017-05-21T04:42:08.535Z,26.00
2017-05-21T04:43:09.267Z,19.00
2017-05-21T04:44:10.273Z,21.00
2017-05-21T04:45:11.006Z,25.00
2017-05-21T04:46:11.738Z,19.00
2017-05-21T04:47:12.468Z,17.00
2017-05-21T04:48:13.202Z,18.00
2017-05-21T04:49:14.183Z,24.00
2017-05-21T04:50:14.913Z,17.00
2017-05-21T04:51:15.669Z,19.00
2017-05-21T04:52:16.418Z,23.00
2017-05-21T04:53:17.161Z,21.00
2017-05-21T04:54:18.167Z,26.00
2017-05-21T04:55:18.896Z,23.00
2017-05-21T04:56:19.631Z,24.00
2017-05-21T04:57:20.362Z,18.00
2017-05-21T04:58:21.096Z,20.00
2017-05-21T04:59:22.081Z,17.00
2017-05-21T05:00:22.816Z,21.00
2017-05-21T05:01:23.544Z,18.00
2017-05-21T05:02:24.272Z,19.00
2017-05-21T05:03:25.008Z,18.00
2017-05-21T05:04:25.988Z,17.00
2017-05-21T05:05:26.716Z,19.00
2017-05-21T05:06:27.446Z,20.00
2017-05-21T05:07:28.175Z,15.00
2017-05-21T05:08:28.909Z,20.00
2017-05-21T05:09:29.892Z,20.00
2017-05-21T05:10:30.623Z,22.00
2017-05-21T05:11:31.354Z,20.00
2017-05-21T05:12:32.085Z,17.00
2017-05-21T05:13:32.818Z,20.00
2017-05-21T05:14:33.800Z,24.00
2017-05-21T05:15:34.536Z,18.00
2017-05-21T05:16:35.269Z,20.00
2017-05-21T05:17:35.997Z,19.00
2017-05-21T05:18:36.756Z,28.00
2017-05-21T05:19:37.767Z,20.00
2017-05-21T05:20:38.499Z,22.00
2017-05-21T05:21:39.230Z,20.00
2017-05-21T05:22:39.964Z,19.00
2017-05-21T05:23:40.695Z,22.00
2017-05-21T05:24:41.678Z,30.00
2017-05-21T05:25:42.410Z,17.00
2017-05-21T05:26:43.147Z,20.00
2017-05-21T05:27:43.874Z,14.00
2017-05-21T05:28:44.607Z,17.00
2017-05-21T05:29:45.591Z,15.00
2017-05-21T05:30:46.324Z,20.00
2017-05-21T05:31:47.058Z,13.00
2017-05-21T05:32:47.791Z,17.00
2017-05-21T05:33:48.524Z,20.00
2017-05-21T05:34:49.534Z,20.00
2017-05-21T05:35:50.264Z,17.00
2017-05-21T05:36:50.997Z,13.00
2017-05-21T05:37:51.728Z,25.00
2017-05-21T05:38:52.461Z,13.00
2017-05-21T05:39:53.444Z,21.00
2017-05-21T05:40:54.171Z,30.00
2017-05-21T05:41:54.904Z,16.00
2017-05-21T05:42:55.666Z,17.00
2017-05-21T05:43:56.400Z,14.00
2017-05-21T05:44:57.384Z,13.00
2017-05-21T05:45:58.116Z,22.00
2017-05-21T05:46:58.847Z,12.00
2017-05-21T05:47:59.584Z,16.00
2017-05-21T05:49:00.342Z,14.00
2017-05-21T05:50:01.323Z,17.00
2017-05-21T05:51:02.058Z,15.00
2017-05-21T05:52:02.793Z,14.00
2017-05-21T05:53:03.529Z,17.00
2017-05-21T05:54:04.261Z,16.00
2017-05-21T05:55:05.248Z,20.00
2017-05-21T05:56:05.979Z,19.00
2017-05-21T05:57:06.713Z,17.00
2017-05-21T05:58:07.450Z,15.00
2017-05-21T05:59:08.180Z,21.00
2017-05-21T06:00:09.164Z,20.00
2017-05-21T06:01:09.897Z,16.00
2017-05-21T06:02:10.632Z,14.00
2017-05-21T06:03:11.367Z,14.00
2017-05-21T06:04:12.100Z,22.00
2017-05-21T06:05:13.084Z,23.00
2017-05-21T06:06:13.818Z,16.00
2017-05-21T06:07:14.553Z,14.00
2017-05-21T06:08:15.285Z,20.00
2017-05-21T06:09:16.021Z,23.00
2017-05-21T06:10:17.007Z,16.00
2017-05-21T06:11:17.743Z,12.00
2017-05-21T06:12:18.478Z,17.00
2017-05-21T06:13:19.235Z,14.00
2017-05-21T06:14:19.972Z,20.00
2017-05-21T06:15:20.956Z,23.00
2017-05-21T06:16:21.689Z,15.00
2017-05-21T06:17:22.418Z,21.00
2017-05-21T06:18:23.145Z,18.00
2017-05-21T06:19:23.878Z,22.00
2017-05-21T06:20:24.862Z,18.00
2017-05-21T06:21:25.596Z,13.00
2017-05-21T06:22:26.331Z,18.00
2017-05-21T06:23:27.066Z,23.00
2017-05-21T06:24:27.801Z,16.00
2017-05-21T06:25:28.784Z,19.00
2017-05-21T06:26:29.546Z,15.00
2017-05-21T06:27:30.284Z,18.00
2017-05-21T06:28:31.016Z,13.00
2017-05-21T06:29:31.753Z,17.00
2017-05-21T06:30:32.732Z,16.00
2017-05-21T06:31:33.465Z,18.00
2017-05-21T06:32:34.203Z,19.00
2017-05-21T06:33:34.936Z,15.00
2017-05-21T06:34:35.673Z,13.00
2017-05-21T06:35:36.658Z,12.00
2017-05-21T06:36:37.395Z,20.00
2017-05-21T06:37:38.129Z,20.00
2017-05-21T06:38:38.866Z,15.00
2017-05-21T06:39:39.602Z,17.00
2017-05-21T06:40:40.589Z,15.00
2017-05-21T06:41:41.324Z,19.00
2017-05-21T06:42:42.060Z,12.00
2017-05-21T06:43:42.785Z,15.00
2017-05-21T06:44:43.521Z,19.00
2017-05-21T06:45:44.532Z,23.00
2017-05-21T06:46:45.268Z,11.00
2017-05-21T06:47:46.006Z,13.00
2017-05-21T06:48:46.739Z,15.00
2017-05-21T06:49:47.475Z,15.00
2017-05-21T06:50:48.463Z,22.00
2017-05-21T06:51:49.196Z,17.00
2017-05-21T06:52:49.934Z,17.00
2017-05-21T06:53:50.695Z,15.00
2017-05-21T06:54:51.457Z,15.00
2017-05-21T06:55:52.469Z,16.00
2017-05-21T06:56:53.205Z,29.00
2017-05-21T06:57:53.939Z,14.00
2017-05-21T06:58:54.675Z,26.00
2017-05-21T06:59:55.401Z,14.00
2017-05-21T07:00:56.390Z,17.00
2017-05-21T07:01:57.126Z,13.00
2017-05-21T07:02:57.863Z,14.00
2017-05-21T07:03:58.601Z,14.00
2017-05-21T07:04:59.338Z,12.00
2017-05-21T07:06:00.325Z,10.00
2017-05-21T07:07:01.061Z,20.00
2017-05-21T07:08:01.796Z,16.00
2017-05-21T07:09:02.531Z,18.00
2017-05-21T07:10:03.265Z,14.00
2017-05-21T07:11:04.252Z,12.00
2017-05-21T07:12:04.987Z,23.00
2017-05-21T07:13:05.724Z,16.00
2017-05-21T07:14:06.482Z,15.00
2017-05-21T07:15:07.216Z,13.00
2017-05-21T07:16:08.203Z,16.00
2017-05-21T07:17:08.938Z,20.00
2017-05-21T07:18:09.675Z,17.00
2017-05-21T07:19:10.406Z,13.00
2017-05-21T07:20:11.140Z,17.00
2017-05-21T07:21:12.127Z,15.00
2017-05-21T07:22:12.863Z,11.00
2017-05-21T07:23:13.598Z,14.00
2017-05-21T07:24:14.334Z,9.00
2017-05-21T07:25:15.069Z,12.00
2017-05-21T07:26:16.084Z,14.00
2017-05-21T07:27:16.822Z,16.00
2017-05-21T07:28:17.563Z,14.00
2017-05-21T07:29:18.330Z,16.00
2017-05-21T07:30:19.071Z,12.00
2017-05-21T07:31:20.064Z,14.00
2017-05-21T07:32:20.806Z,10.00
2017-05-21T07:33:21.548Z,10.00
2017-05-21T07:34:22.290Z,17.00
2017-05-21T07:35:23.035Z,10.00
2017-05-21T07:36:24.053Z,15.00
2017-05-21T07:37:24.794Z,9.00
2017-05-21T07:38:25.539Z,10.00
2017-05-21T07:39:26.285Z,9.00
2017-05-21T07:40:27.036Z,14.00
2017-05-21T07:41:28.035Z,15.00
2017-05-21T07:42:28.781Z,22.00
2017-05-21T07:43:29.528Z,14.00
2017-05-21T07:44:30.300Z,9.00
2017-05-21T07:45:31.035Z,12.00
2017-05-21T07:46:32.062Z,15.00
2017-05-21T07:47:32.807Z,10.00
2017-05-21T07:48:33.582Z,14.00
2017-05-21T07:49:34.332Z,8.00
2017-05-21T07:50:35.083Z,16.00
2017-05-21T07:51:36.078Z,12.00
2017-05-21T07:52:36.823Z,9.00
2017-05-21T07:53:37.574Z,8.00
2017-05-21T07:54:38.321Z,10.00
2017-05-21T07:55:39.067Z,8.00
2017-05-21T07:56:40.063Z,15.00
2017-05-21T07:57:40.811Z,8.00
2017-05-21T07:58:41.578Z,7.00
2017-05-21T07:59:42.327Z,6.00
2017-05-21T08:00:43.073Z,8.00
2017-05-21T08:01:44.071Z,10.00
2017-05-21T08:02:44.842Z,9.00
2017-05-21T08:03:45.590Z,10.00
2017-05-21T08:04:46.337Z,8.00
2017-05-21T08:05:47.085Z,11.00
2017-05-21T08:06:48.084Z,8.00
2017-05-21T08:07:48.827Z,7.00
2017-05-21T08:08:49.572Z,7.00
2017-05-21T08:09:50.320Z,7.00
2017-05-21T08:10:51.066Z,11.00
2017-05-21T08:11:52.063Z,12.00
2017-05-21T08:12:52.811Z,7.00
2017-05-21T08:13:53.559Z,12.00
2017-05-21T08:14:54.310Z,12.00
2017-05-21T08:15:55.056Z,6.00
2017-05-21T08:16:56.054Z,13.00
2017-05-21T08:17:56.793Z,14.00
2017-05-21T08:18:57.544Z,11.00
2017-05-21T08:19:58.290Z,7.00
2017-05-21T08:20:59.039Z,11.00
2017-05-21T08:22:00.064Z,8.00
2017-05-21T08:23:00.811Z,12.00
2017-05-21T08:24:01.561Z,8.00
2017-05-21T08:25:02.311Z,8.00
2017-05-21T08:26:03.058Z,5.00
2017-05-21T08:27:04.059Z,7.00
2017-05-21T08:28:04.831Z,8.00
2017-05-21T08:29:05.580Z,6.00
2017-05-21T08:30:06.329Z,8.00
2017-05-21T08:31:07.078Z,5.00
2017-05-21T08:32:08.078Z,7.00
2017-05-21T08:33:08.824Z,7.00
2017-05-21T08:34:09.573Z,7.00
2017-05-21T08:35:10.321Z,10.00
2017-05-21T08:36:11.068Z,6.00
2017-05-21T08:37:12.067Z,4.00
2017-05-21T08:38:12.836Z,8.00
2017-05-21T08:39:13.585Z,4.00
2017-05-21T08:40:14.331Z,6.00
2017-05-21T08:41:15.081Z,7.00
2017-05-21T08:42:16.079Z,5.00
2017-05-21T08:43:16.828Z,5.00
2017-05-21T08:44:17.573Z,4.00
2017-05-21T08:45:18.326Z,9.00
2017-05-21T08:46:19.073Z,10.00
2017-05-21T08:47:20.070Z,6.00
2017-05-21T08:48:20.819Z,6.00
2017-05-21T08:49:21.568Z,9.00
2017-05-21T08:50:22.316Z,5.00
2017-05-21T08:51:23.061Z,8.00
2017-05-21T08:52:24.085Z,6.00
2017-05-21T08:53:24.835Z,5.00
2017-05-21T08:54:25.586Z,5.00
2017-05-21T08:55:26.334Z,5.00
2017-05-21T08:56:27.110Z,6.00
2017-05-21T08:57:28.132Z,8.00
2017-05-21T08:58:28.881Z,6.00
2017-05-21T08:59:29.629Z,3.00
2017-05-21T09:00:30.378Z,14.00
2017-05-21T09:01:31.128Z,11.00
2017-05-21T09:02:32.129Z,3.00
2017-05-21T09:03:32.879Z,8.00
2017-05-21T09:04:33.628Z,10.00
2017-05-21T09:05:34.376Z,7.00
2017-05-21T09:06:35.124Z,4.00
2017-05-21T09:07:36.180Z,4.00
2017-05-21T09:08:36.875Z,4.00
2017-05-21T09:09:37.627Z,4.00
2017-05-21T09:10:38.376Z,3.00
2017-05-21T09:11:39.128Z,7.00
2017-05-21T09:12:40.125Z,11.00
2017-05-21T09:13:40.877Z,4.00
2017-05-21T09:14:41.629Z,7.00
2017-05-21T09:15:42.378Z,4.00
2017-05-21T09:16:43.125Z,4.00
2017-05-21T09:17:44.122Z,4.00
2017-05-21T09:18:44.866Z,3.00
2017-05-21T09:19:45.613Z,3.00
2017-05-21T09:20:46.359Z,6.00
2017-05-21T09:21:47.105Z,3.00
2017-05-21T09:22:48.103Z,12.00
2017-05-21T09:23:48.851Z,3.00
2017-05-21T09:24:49.598Z,4.00
2017-05-21T09:25:50.371Z,4.00
2017-05-21T09:26:51.127Z,4.00
2017-05-21T09:27:52.128Z,8.00
2017-05-21T09:28:52.876Z,4.00
2017-05-21T09:29:53.627Z,4.00
2017-05-21T09:30:54.382Z,3.00
2017-05-21T09:31:55.135Z,10.00
2017-05-21T09:32:56.142Z,4.00
2017-05-21T09:33:56.894Z,3.00
2017-05-21T09:34:57.651Z,3.00
2017-05-21T09:35:58.410Z,6.00
2017-05-21T09:36:59.163Z,3.00
2017-05-21T09:38:00.171Z,4.00
2017-05-21T09:39:00.922Z,4.00
2017-05-21T09:40:01.673Z,4.00
2017-05-21T09:41:02.421Z,6.00
2017-05-21T09:42:03.169Z,6.00
2017-05-21T09:43:04.166Z,5.00
2017-05-21T09:44:04.913Z,6.00
2017-05-21T09:45:05.661Z,3.00
2017-05-21T09:46:06.410Z,3.00
2017-05-21T09:47:07.163Z,5.00
2017-05-21T09:48:08.167Z,4.00
2017-05-21T09:49:08.920Z,4.00
2017-05-21T09:50:09.676Z,5.00
2017-05-21T09:51:10.436Z,24.00
2017-05-21T09:52:11.195Z,6.00
2017-05-21T09:53:12.203Z,3.00
2017-05-21T09:54:12.985Z,3.00
2017-05-21T09:55:13.744Z,5.00
2017-05-21T09:56:14.500Z,3.00
2017-05-21T09:57:15.255Z,3.00
2017-05-21T09:58:16.254Z,5.00
2017-05-21T09:59:17.008Z,4.00
2017-05-21T10:00:17.756Z,5.00
2017-05-21T10:01:18.507Z,6.00
2017-05-21T10:02:19.278Z,3.00
2017-05-21T10:03:20.276Z,3.00
2017-05-21T10:04:21.022Z,4.00
2017-05-21T10:05:21.796Z,2.00
2017-05-21T10:06:22.541Z,5.00
2017-05-21T10:07:23.290Z,4.00
2017-05-21T10:08:24.288Z,7.00
2017-05-21T10:09:25.030Z,5.00
2017-05-21T10:10:25.778Z,4.00
2017-05-21T10:11:26.550Z,3.00
2017-05-21T10:12:27.295Z,3.00
2017-05-21T10:13:28.294Z,4.00
2017-05-21T10:14:29.041Z,4.00
2017-05-21T10:15:29.789Z,3.00
2017-05-21T10:16:30.541Z,4.00
2017-05-21T10:17:31.289Z,4.00
2017-05-21T10:18:32.290Z,3.00
2017-05-21T10:19:33.053Z,13.00
2017-05-21T10:20:33.805Z,6.00
2017-05-21T10:21:34.559Z,4.00
2017-05-21T10:22:35.316Z,4.00
2017-05-21T10:23:36.326Z,7.00
2017-05-21T10:24:37.089Z,3.00
2017-05-21T10:25:37.872Z,2.00
2017-05-21T10:26:38.643Z,3.00
2017-05-21T10:27:39.401Z,5.00
2017-05-21T10:28:40.435Z,5.00
2017-05-21T10:29:41.197Z,5.00
2017-05-21T10:30:41.952Z,3.00
2017-05-21T10:31:42.709Z,3.00
2017-05-21T10:32:43.467Z,6.00
2017-05-21T10:33:44.474Z,7.00
2017-05-21T10:34:45.231Z,5.00
2017-05-21T10:35:45.992Z,6.00
2017-05-21T10:36:46.746Z,15.00
2017-05-21T10:37:47.499Z,3.00
2017-05-21T10:38:48.507Z,3.00
2017-05-21T10:39:49.268Z,4.00
2017-05-21T10:40:50.027Z,4.00
2017-05-21T10:41:50.811Z,3.00
2017-05-21T10:42:51.566Z,2.00
2017-05-21T10:43:52.577Z,2.00
2017-05-21T10:44:53.330Z,3.00
2017-05-21T10:45:54.091Z,12.00
2017-05-21T10:46:54.848Z,5.00
2017-05-21T10:47:55.610Z,2.00
2017-05-21T10:48:56.615Z,3.00
2017-05-21T10:49:57.376Z,3.00
2017-05-21T10:50:58.162Z,5.00
2017-05-21T10:51:58.918Z,3.00
2017-05-21T10:52:59.677Z,4.00
2017-05-21T10:54:00.684Z,3.00
2017-05-21T10:55:01.436Z,3.00
2017-05-21T10:56:02.192Z,4.00
2017-05-21T10:57:02.947Z,4.00
2017-05-21T10:58:03.703Z,4.00
2017-05-21T10:59:04.716Z,10.00
2017-05-21T11:00:05.475Z,18.00
2017-05-21T11:01:06.234Z,4.00
2017-05-21T11:02:06.989Z,3.00
2017-05-21T11:03:07.748Z,3.00
2017-05-21T11:04:08.752Z,3.00
2017-05-21T11:05:09.509Z,3.00
2017-05-21T11:06:10.264Z,3.00
2017-05-21T11:07:11.023Z,4.00
2017-05-21T11:08:11.784Z,3.00
2017-05-21T11:09:12.818Z,4.00
2017-05-21T11:10:13.574Z,4.00
2017-05-21T11:11:14.335Z,3.00
2017-05-21T11:12:15.092Z,5.00
2017-05-21T11:13:15.850Z,5.00
2017-05-21T11:14:16.861Z,3.00
2017-05-21T11:15:17.622Z,6.00
2017-05-21T11:16:18.380Z,5.00
2017-05-21T11:17:19.132Z,3.00
2017-05-21T11:18:19.892Z,4.00
2017-05-21T11:19:20.902Z,2.00
2017-05-21T11:20:21.717Z,6.00
2017-05-21T11:21:22.417Z,3.00
2017-05-21T11:22:23.180Z,3.00
2017-05-21T11:23:23.934Z,3.00
2017-05-21T11:24:24.943Z,6.00
2017-05-21T11:25:25.703Z,4.00
2017-05-21T11:26:26.457Z,8.00
2017-05-21T11:27:27.217Z,3.00
2017-05-21T11:28:27.997Z,4.00
2017-05-21T11:29:29.002Z,4.00
2017-05-21T11:30:29.754Z,3.00
2017-05-21T11:31:30.510Z,8.00
2017-05-21T11:32:31.266Z,6.00
2017-05-21T11:33:32.022Z,12.00
2017-05-21T11:34:33.029Z,5.00
2017-05-21T11:35:33.785Z,4.00
2017-05-21T11:36:34.545Z,3.00
2017-05-21T11:37:35.309Z,3.00
2017-05-21T11:38:36.063Z,4.00
2017-05-21T11:39:37.065Z,3.00
2017-05-21T11:40:37.825Z,3.00
2017-05-21T11:41:38.578Z,3.00
2017-05-21T11:42:39.335Z,7.00
2017-05-21T11:43:40.090Z,6.00
2017-05-21T11:44:41.095Z,4.00
2017-05-21T11:45:41.852Z,5.00
2017-05-21T11:46:42.610Z,4.00
2017-05-21T11:47:43.390Z,6.00
2017-05-21T11:48:44.143Z,7.00
2017-05-21T11:49:45.147Z,5.00
2017-05-21T11:50:45.904Z,4.00
2017-05-21T11:51:46.657Z,4.00
2017-05-21T11:52:47.413Z,5.00
2017-05-21T11:53:48.172Z,4.00
2017-05-21T11:54:49.176Z,5.00
2017-05-21T11:55:49.932Z,5.00
2017-05-21T11:56:50.684Z,4.00
2017-05-21T11:57:51.442Z,6.00
2017-05-21T11:58:52.198Z,4.00
2017-05-21T11:59:53.197Z,5.00
2017-05-21T12:00:53.939Z,4.00
2017-05-21T12:01:54.693Z,6.00
2017-05-21T12:02:55.441Z,4.00
2017-05-21T12:03:56.196Z,15.00
2017-05-21T12:04:57.206Z,3.00
2017-05-21T12:05:57.964Z,4.00
2017-05-21T12:06:58.724Z,5.00
2017-05-21T12:07:59.483Z,5.00
2017-05-21T12:09:00.244Z,3.00
2017-05-21T12:10:01.252Z,5.00
2017-05-21T12:11:02.007Z,6.00
2017-05-21T12:12:02.791Z,10.00
2017-05-21T12:13:03.546Z,4.00
2017-05-21T12:14:04.302Z,4.00
2017-05-21T12:15:05.332Z,4.00
2017-05-21T12:16:06.118Z,4.00
2017-05-21T12:17:06.874Z,6.00
2017-05-21T12:18:07.632Z,3.00
2017-05-21T12:19:08.391Z,5.00
2017-05-21T12:20:09.398Z,4.00
2017-05-21T12:21:10.153Z,7.00
2017-05-21T12:22:10.910Z,4.00
2017-05-21T12:23:11.669Z,4.00
2017-05-21T12:24:12.420Z,4.00
2017-05-21T12:25:13.428Z,8.00
2017-05-21T12:26:14.181Z,8.00
2017-05-21T12:27:14.964Z,3.00
2017-05-21T12:28:15.720Z,3.00
2017-05-21T12:29:16.478Z,3.00
2017-05-21T12:30:17.520Z,3.00
2017-05-21T12:31:18.277Z,21.00
2017-05-21T12:32:19.033Z,3.00
2017-05-21T12:33:19.790Z,14.00
2017-05-21T12:34:20.545Z,3.00
2017-05-21T12:35:21.554Z,4.00
2017-05-21T12:36:22.309Z,4.00
2017-05-21T12:37:23.068Z,3.00
2017-05-21T12:38:23.823Z,5.00
2017-05-21T12:39:24.577Z,3.00
2017-05-21T12:40:25.583Z,6.00
2017-05-21T12:41:26.337Z,3.00
2017-05-21T12:42:27.120Z,3.00
2017-05-21T12:43:27.875Z,5.00
2017-05-21T12:44:28.629Z,10.00
2017-05-21T12:45:29.628Z,17.00
2017-05-21T12:46:30.390Z,31.00
2017-05-21T12:47:31.147Z,4.00
2017-05-21T12:48:31.907Z,9.00
2017-05-21T12:49:32.665Z,4.00
2017-05-21T12:50:33.676Z,7.00
2017-05-21T12:51:34.430Z,2.00
2017-05-21T12:52:35.192Z,6.00
2017-05-21T12:53:35.972Z,4.00
2017-05-21T12:54:36.729Z,4.00
2017-05-21T12:55:37.735Z,3.00
2017-05-21T12:56:38.487Z,3.00
2017-05-21T12:57:39.243Z,4.00
2017-05-21T12:58:39.994Z,4.00
2017-05-21T12:59:40.754Z,3.00
2017-05-21T13:00:41.789Z,9.00
2017-05-21T13:01:42.542Z,3.00
2017-05-21T13:02:43.299Z,4.00
2017-05-21T13:03:44.052Z,3.00
2017-05-21T13:04:44.810Z,3.00
2017-05-21T13:05:45.821Z,4.00
2017-05-21T13:06:46.581Z,4.00
2017-05-21T13:07:47.337Z,5.00
2017-05-21T13:08:48.093Z,5.00
2017-05-21T13:09:48.852Z,3.00
2017-05-21T13:10:49.862Z,3.00
2017-05-21T13:11:50.615Z,3.00